Menu Close Menu
Station Historical Data
Daily Summary for May 26, 2017 Units:  English    Metric   Both
« Previous Day
Next Day »
Daily Weekly Monthly Yearly Custom
  High: Low: Average:
Temperature: 78.0 °F 54.0 °F 61 °F
Dew Point: 62.6 °F 50.8 °F 53.8 °F
Humidity: 91% 54% 79%
Wind Speed: 1.0mph 0.0mph 0mph
Wind Gust: 5.0mph - -
Wind- - WSW
Pressure: 30.06 in 29.93 in -
Precipitation: 0.00 in    
Historical Graphs
 
 
Tabular Data for May 26, 2017
Time Temperature Dew Point Pressure Wind Wind Speed Wind Gust Humidity Rainfall Rate (Hourly) solar Conditions
00:00 57.9 °F 52.8 °F 29.93 in Calm     83% 0.00 in WeatherDisplay:10.37 W/m2 RA
00:10 57.6 °F 52.1 °F 29.93 in Calm     82% 0.00 in WeatherDisplay:10.37 W/m2 SCT
00:20 57.5 °F 52.4 °F 29.94 in Calm     83% 0.00 in WeatherDisplay:10.37 W/m2 SCT
00:30 57.2 °F 52.1 °F 29.94 in Calm     83% 0.00 in WeatherDisplay:10.37 W/m2 SCT
00:50 57.0 °F 52.2 °F 29.94 in Calm     84% 0.00 in WeatherDisplay:10.37 W/m2 SCT
01:00 56.8 °F 52.4 °F 29.95 in Calm     85% 0.00 in WeatherDisplay:10.37 W/m2 SCT
01:10 56.7 °F 52.3 °F 29.95 in Calm     85% 0.00 in WeatherDisplay:10.37 W/m2 SCT
01:20 56.5 °F 52.0 °F 29.95 in Calm     85% 0.00 in WeatherDisplay:10.37 W/m2 SCT
01:30 56.2 °F 51.7 °F 29.95 in Calm     85% 0.00 in WeatherDisplay:10.37 W/m2 SCT
01:40 56.1 °F 51.7 °F 29.96 in Calm     85% 0.00 in WeatherDisplay:10.37 W/m2 SCT
01:50 56.0 °F 51.9 °F 29.96 in Calm     86% 0.00 in WeatherDisplay:10.37 W/m2 SCT
02:00 55.8 °F 51.7 °F 29.96 in Calm     86% 0.00 in WeatherDisplay:10.37 W/m2 SCT
02:10 55.8 °F 51.7 °F 29.96 in Calm     86% 0.00 in WeatherDisplay:10.37 W/m2 SCT
02:20 55.7 °F 51.6 °F 29.96 in Calm     86% 0.00 in WeatherDisplay:10.37 W/m2 SCT
02:40 55.4 °F 51.3 °F 29.96 in Calm     86% 0.00 in WeatherDisplay:10.37 W/m2 SCT
02:50 55.3 °F 51.2 °F 29.96 in Calm     86% 0.00 in WeatherDisplay:10.37 W/m2 SCT
03:00 55.2 °F 51.1 °F 29.96 in Calm     86% 0.00 in WeatherDisplay:10.37 W/m2 SCT
03:10 55.1 °F 51.0 °F 29.97 in Calm     86% 0.00 in WeatherDisplay:10.37 W/m2 SCT
03:20 54.9 °F 50.8 °F 29.97 in Calm     86% 0.00 in WeatherDisplay:10.37 W/m2 SCT
03:30 54.9 °F 51.1 °F 29.96 in Calm     87% 0.00 in WeatherDisplay:10.37 W/m2 SCT
03:40 54.7 °F 50.9 °F 29.97 in Calm     87% 0.00 in WeatherDisplay:10.37 W/m2 SCT
03:50 54.6 °F 50.8 °F 29.97 in Calm   1.0 mph 87% 0.00 in WeatherDisplay:10.37 W/m2 SCT
04:00 54.0 °F 50.8 °F 29.97 in Calm   1.0 mph 89% 0.00 in WeatherDisplay:10.37 W/m2 SCT
04:10 54.0 °F 50.8 °F 29.98 in Calm     89% 0.00 in WeatherDisplay:10.37 W/m2 SCT
04:20 54.0 °F 50.8 °F 29.98 in Calm     89% 0.00 in WeatherDisplay:10.37 W/m2 SCT
04:30 54.0 °F 50.8 °F 29.98 in Calm     89% 0.00 in WeatherDisplay:10.37 W/m2 SCT
04:40 54.0 °F 50.8 °F 29.98 in Calm     89% 0.00 in WeatherDisplay:10.37 W/m2 SCT
04:50 54.0 °F 50.8 °F 29.98 in Calm     89% 0.00 in WeatherDisplay:10.37 W/m2 SCT
05:00 54.0 °F 50.8 °F 29.99 in Calm     89% 0.00 in WeatherDisplay:10.37 W/m2 SCT
05:10 54.0 °F 50.8 °F 29.99 in Calm     89% 0.00 in WeatherDisplay:10.37 W/m2 SCT
05:20 54.0 °F 50.8 °F 29.99 in Calm     89% 0.00 in WeatherDisplay:10.37 W/m2 SCT
05:30 54.0 °F 50.8 °F 30.00 in Calm     89% 0.00 in WeatherDisplay:10.37 W/m2 SCT
05:40 54.0 °F 50.8 °F 30.00 in Calm     89% 0.00 in WeatherDisplay:10.37 W/m2 SCT
05:50 54.0 °F 50.8 °F 30.00 in Calm     89% 0.00 in WeatherDisplay:10.37 W/m2 SCT
06:00 54.0 °F 50.8 °F 30.00 in Calm     89% 0.00 in WeatherDisplay:10.37 W/m2 SCT
06:10 54.0 °F 50.8 °F 30.00 in Calm     89% 0.00 in WeatherDisplay:10.37 W/m2 SCT
06:20 54.0 °F 50.8 °F 30.01 in Calm     89% 0.00 in WeatherDisplay:10.37 W/m2 SCT
06:30 54.0 °F 50.8 °F 30.01 in Calm     89% 0.00 in WeatherDisplay:10.37 W/m2 SCT
06:40 54.0 °F 50.8 °F 30.01 in Calm     89% 0.00 in WeatherDisplay:10.37 W/m2 SCT
06:50 54.0 °F 50.8 °F 30.02 in Calm     89% 0.00 in WeatherDisplay:10.37 W/m2 SCT
07:00 54.0 °F 50.8 °F 30.02 in Calm     89% 0.00 in WeatherDisplay:10.37 W/m2 SCT
07:10 54.0 °F 50.8 °F 30.02 in Calm     89% 0.00 in WeatherDisplay:10.37 W/m2 SCT
07:20 54.0 °F 50.8 °F 30.02 in Calm     89% 0.00 in WeatherDisplay:10.37 W/m2 SCT
07:30 54.5 °F 51.6 °F 30.03 in Calm     90% 0.00 in WeatherDisplay:10.37 W/m2 SCT
07:40 55.2 °F 52.6 °F 30.03 in Calm     91% 0.00 in WeatherDisplay:10.37 W/m2 SCT
07:50 55.6 °F 52.7 °F 30.03 in Calm     90% 0.00 in WeatherDisplay:10.37 W/m2 SCT
08:00 56.2 °F 53.3 °F 30.03 in Calm     90% 0.00 in WeatherDisplay:10.37 W/m2 SCT
08:10 56.9 °F 53.7 °F 30.03 in Calm     89% 0.00 in WeatherDisplay:10.37 W/m2 SCT
08:20 57.8 °F 54.3 °F 30.04 in Calm     88% 0.00 in WeatherDisplay:10.37 W/m2 SCT
08:30 58.9 °F 55.0 °F 30.05 in Calm     87% 0.00 in WeatherDisplay:10.37 W/m2 SCT
08:40 60.0 °F 55.8 °F 30.05 in Calm     86% 0.00 in WeatherDisplay:10.37 W/m2 SCT
08:50 61.2 °F 56.4 °F 30.05 in Calm     84% 0.00 in WeatherDisplay:10.37 W/m2 SCT
09:00 62.5 °F 56.3 °F 30.05 in Calm   1.0 mph 80% 0.00 in WeatherDisplay:10.37 W/m2 SCT
09:10 63.7 °F 56.7 °F 30.05 in Calm   1.0 mph 78% 0.00 in WeatherDisplay:10.37 W/m2 SCT
09:20 64.9 °F 55.6 °F 30.06 in Calm   1.0 mph 72% 0.00 in WeatherDisplay:10.37 W/m2 SCT
09:30 66.1 °F 56.4 °F 30.06 in Calm     71% 0.00 in WeatherDisplay:10.37 W/m2 SCT
09:50 68.1 °F 54.1 °F 30.06 in Calm   1.0 mph 61% 0.00 in WeatherDisplay:10.37 W/m2 SCT
10:00 68.8 °F 54.8 °F 30.06 in South 1.0 mph 2.0 mph 61% 0.00 in WeatherDisplay:10.37 W/m2 SCT
10:10 70.0 °F 54.5 °F 30.06 in Calm   2.0 mph 58% 0.00 in WeatherDisplay:10.37 W/m2 SCT
10:20 70.8 °F 56.3 °F 30.06 in Calm   3.0 mph 60% 0.00 in WeatherDisplay:10.37 W/m2 SCT
10:30 72.0 °F 55.5 °F 30.06 in Calm   3.0 mph 56% 0.00 in WeatherDisplay:10.37 W/m2 SCT
10:40 72.6 °F 57.0 °F 30.06 in Calm   2.0 mph 58% 0.00 in WeatherDisplay:10.37 W/m2 SCT
10:50 72.7 °F 55.6 °F 30.06 in Calm   2.0 mph 55% 0.00 in WeatherDisplay:10.37 W/m2 SCT
11:00 72.8 °F 57.1 °F 30.06 in Calm   1.0 mph 58% 0.00 in WeatherDisplay:10.37 W/m2 SCT
11:10 72.8 °F 57.6 °F 30.06 in Calm   3.0 mph 59% 0.00 in WeatherDisplay:10.37 W/m2 SCT
11:20 72.7 °F 56.6 °F 30.06 in Calm   5.0 mph 57% 0.00 in WeatherDisplay:10.37 W/m2 SCT
11:30 73.1 °F 56.5 °F 30.06 in West 1.0 mph 5.0 mph 56% 0.00 in WeatherDisplay:10.37 W/m2 SCT
11:40 73.6 °F 57.0 °F 30.06 in West 1.0 mph 3.0 mph 56% 0.00 in WeatherDisplay:10.37 W/m2 SCT
11:50 73.9 °F 56.7 °F 30.06 in Calm   2.0 mph 55% 0.00 in WeatherDisplay:10.37 W/m2 SCT
12:00 74.4 °F 56.7 °F 30.06 in Calm   2.0 mph 54% 0.00 in WeatherDisplay:10.37 W/m2 SCT
12:10 75.2 °F 57.4 °F 30.06 in Calm   5.0 mph 54% 0.00 in WeatherDisplay:10.37 W/m2 SCT
12:20 75.7 °F 58.9 °F 30.06 in Calm   5.0 mph 56% 0.00 in WeatherDisplay:10.37 W/m2 SCT
12:30 76.0 °F 58.7 °F 30.06 in Calm   3.0 mph 55% 0.00 in WeatherDisplay:10.37 W/m2 SCT
12:40 76.8 °F 58.9 °F 30.06 in Calm   3.0 mph 54% 0.00 in WeatherDisplay:10.37 W/m2 SCT
12:50 78.0 °F 60.6 °F 30.06 in Calm   1.0 mph 55% 0.00 in WeatherDisplay:10.37 W/m2 SCT
23:10 70.1 °F 62.6 °F 30.01 in Calm     77% 0.00 in WeatherDisplay:10.37 W/m2 SCT
23:20 69.9 °F 62.4 °F 30.01 in Calm     77% 0.00 in WeatherDisplay:10.37 W/m2 SCT
23:30 69.8 °F 62.3 °F 30.01 in Calm     77% 0.00 in WeatherDisplay:10.37 W/m2 SCT
23:40 69.6 °F 62.1 °F 30.01 in Calm     77% 0.00 in WeatherDisplay:10.37 W/m2 SCT
23:50 69.4 °F 62.3 °F 30.01 in Calm     78% 0.00 in WeatherDisplay:10.37 W/m2 SCT
Piedmont Bend
Compliments of Weather Underground - 4 mb